sensor_id;sensor_type;location;lat;lon;timestamp;temperature;humidity
18047;DHT22;9148;51.454;13.862;2024-01-27T00:00:08;5.20;99.90
18047;DHT22;9148;51.454;13.862;2024-01-27T00:02:35;5.20;99.90
18047;DHT22;9148;51.454;13.862;2024-01-27T00:05:01;5.20;99.90
18047;DHT22;9148;51.454;13.862;2024-01-27T00:07:27;5.20;99.90
18047;DHT22;9148;51.454;13.862;2024-01-27T00:09:54;5.20;99.90
18047;DHT22;9148;51.454;13.862;2024-01-27T00:12:20;6.00;99.90
18047;DHT22;9148;51.454;13.862;2024-01-27T00:14:46;5.30;99.90
18047;DHT22;9148;51.454;13.862;2024-01-27T00:17:12;6.20;99.90
18047;DHT22;9148;51.454;13.862;2024-01-27T00:19:37;4.60;99.90
18047;DHT22;9148;51.454;13.862;2024-01-27T00:22:03;4.60;99.90
18047;DHT22;9148;51.454;13.862;2024-01-27T00:24:29;5.20;99.90
18047;DHT22;9148;51.454;13.862;2024-01-27T00:26:54;5.70;99.90
18047;DHT22;9148;51.454;13.862;2024-01-27T00:29:21;5.20;99.90
18047;DHT22;9148;51.454;13.862;2024-01-27T00:31:47;5.10;99.90
18047;DHT22;9148;51.454;13.862;2024-01-27T00:34:14;5.70;99.90
18047;DHT22;9148;51.454;13.862;2024-01-27T00:36:40;5.20;99.90
18047;DHT22;9148;51.454;13.862;2024-01-27T00:39:07;6.10;99.90
18047;DHT22;9148;51.454;13.862;2024-01-27T00:41:33;6.20;99.90
18047;DHT22;9148;51.454;13.862;2024-01-27T00:43:59;5.20;99.90
18047;DHT22;9148;51.454;13.862;2024-01-27T00:46:25;5.10;99.90
18047;DHT22;9148;51.454;13.862;2024-01-27T00:48:50;5.20;99.90
18047;DHT22;9148;51.454;13.862;2024-01-27T00:51:16;5.20;99.90
18047;DHT22;9148;51.454;13.862;2024-01-27T00:53:42;5.20;99.90
18047;DHT22;9148;51.454;13.862;2024-01-27T00:56:07;5.30;99.90
18047;DHT22;9148;51.454;13.862;2024-01-27T00:58:33;5.40;99.90
18047;DHT22;9148;51.454;13.862;2024-01-27T01:00:59;5.70;99.90
18047;DHT22;9148;51.454;13.862;2024-01-27T01:03:25;5.20;99.90
18047;DHT22;9148;51.454;13.862;2024-01-27T01:05:51;5.80;99.90
18047;DHT22;9148;51.454;13.862;2024-01-27T01:08:16;6.00;99.90
18047;DHT22;9148;51.454;13.862;2024-01-27T01:10:42;6.20;99.90
18047;DHT22;9148;51.454;13.862;2024-01-27T01:13:08;6.20;99.90
18047;DHT22;9148;51.454;13.862;2024-01-27T01:15:33;5.70;99.90
18047;DHT22;9148;51.454;13.862;2024-01-27T01:17:59;5.70;99.90
18047;DHT22;9148;51.454;13.862;2024-01-27T01:20:25;5.20;99.90
18047;DHT22;9148;51.454;13.862;2024-01-27T01:22:52;5.30;99.90
18047;DHT22;9148;51.454;13.862;2024-01-27T01:25:18;6.10;99.90
18047;DHT22;9148;51.454;13.862;2024-01-27T01:27:45;6.10;99.90
18047;DHT22;9148;51.454;13.862;2024-01-27T01:30:11;6.00;99.90
18047;DHT22;9148;51.454;13.862;2024-01-27T01:32:37;5.20;99.90
18047;DHT22;9148;51.454;13.862;2024-01-27T01:35:03;5.50;99.90
18047;DHT22;9148;51.454;13.862;2024-01-27T01:37:29;5.30;99.90
18047;DHT22;9148;51.454;13.862;2024-01-27T01:39:55;5.70;99.90
18047;DHT22;9148;51.454;13.862;2024-01-27T01:42:21;5.20;99.90
18047;DHT22;9148;51.454;13.862;2024-01-27T01:44:50;5.50;99.90
18047;DHT22;9148;51.454;13.862;2024-01-27T01:47:16;5.30;99.90
18047;DHT22;9148;51.454;13.862;2024-01-27T01:49:42;5.80;99.90
18047;DHT22;9148;51.454;13.862;2024-01-27T01:52:08;5.20;99.90
18047;DHT22;9148;51.454;13.862;2024-01-27T01:54:35;5.20;99.90
18047;DHT22;9148;51.454;13.862;2024-01-27T01:57:00;5.90;99.90
18047;DHT22;9148;51.454;13.862;2024-01-27T01:59:27;5.00;99.90
18047;DHT22;9148;51.454;13.862;2024-01-27T02:01:53;4.90;99.90
18047;DHT22;9148;51.454;13.862;2024-01-27T02:04:18;4.80;99.90
18047;DHT22;9148;51.454;13.862;2024-01-27T02:06:44;4.90;99.90
18047;DHT22;9148;51.454;13.862;2024-01-27T02:09:10;5.70;99.90
18047;DHT22;9148;51.454;13.862;2024-01-27T02:11:35;5.50;99.90
18047;DHT22;9148;51.454;13.862;2024-01-27T02:14:01;5.10;99.90
18047;DHT22;9148;51.454;13.862;2024-01-27T02:16:27;5.90;99.90
18047;DHT22;9148;51.454;13.862;2024-01-27T02:18:52;5.00;99.90
18047;DHT22;9148;51.454;13.862;2024-01-27T02:21:18;5.80;99.90
18047;DHT22;9148;51.454;13.862;2024-01-27T02:23:44;4.90;99.90
18047;DHT22;9148;51.454;13.862;2024-01-27T02:26:10;4.90;99.90
18047;DHT22;9148;51.454;13.862;2024-01-27T02:28:35;4.90;99.90
18047;DHT22;9148;51.454;13.862;2024-01-27T02:31:01;4.90;99.90
18047;DHT22;9148;51.454;13.862;2024-01-27T02:33:27;5.90;99.90
18047;DHT22;9148;51.454;13.862;2024-01-27T02:35:53;5.00;99.90
18047;DHT22;9148;51.454;13.862;2024-01-27T02:38:18;4.90;99.90
18047;DHT22;9148;51.454;13.862;2024-01-27T02:40:44;5.00;99.90
18047;DHT22;9148;51.454;13.862;2024-01-27T02:43:10;5.90;99.90
18047;DHT22;9148;51.454;13.862;2024-01-27T02:45:35;5.00;99.90
18047;DHT22;9148;51.454;13.862;2024-01-27T02:48:01;4.90;99.90
18047;DHT22;9148;51.454;13.862;2024-01-27T02:50:27;4.90;99.90
18047;DHT22;9148;51.454;13.862;2024-01-27T02:52:52;5.50;99.90
18047;DHT22;9148;51.454;13.862;2024-01-27T02:55:18;4.80;99.90
18047;DHT22;9148;51.454;13.862;2024-01-27T02:57:44;4.80;99.90
18047;DHT22;9148;51.454;13.862;2024-01-27T03:00:10;4.80;99.90
18047;DHT22;9148;51.454;13.862;2024-01-27T03:02:36;4.80;99.90
18047;DHT22;9148;51.454;13.862;2024-01-27T03:05:01;4.80;99.90
18047;DHT22;9148;51.454;13.862;2024-01-27T03:07:27;4.70;99.90
18047;DHT22;9148;51.454;13.862;2024-01-27T03:09:53;5.50;99.90
18047;DHT22;9148;51.454;13.862;2024-01-27T03:12:18;5.60;99.90
18047;DHT22;9148;51.454;13.862;2024-01-27T03:14:44;4.50;99.90
18047;DHT22;9148;51.454;13.862;2024-01-27T03:17:11;4.50;99.90
18047;DHT22;9148;51.454;13.862;2024-01-27T03:19:37;4.50;99.90
18047;DHT22;9148;51.454;13.862;2024-01-27T03:22:02;4.50;99.90
18047;DHT22;9148;51.454;13.862;2024-01-27T03:24:28;4.50;99.90
18047;DHT22;9148;51.454;13.862;2024-01-27T03:26:54;4.40;99.90
18047;DHT22;9148;51.454;13.862;2024-01-27T03:29:19;4.40;99.90
18047;DHT22;9148;51.454;13.862;2024-01-27T03:31:45;5.10;99.90
18047;DHT22;9148;51.454;13.862;2024-01-27T03:34:11;4.40;99.90
18047;DHT22;9148;51.454;13.862;2024-01-27T03:36:36;5.40;99.90
18047;DHT22;9148;51.454;13.862;2024-01-27T03:39:02;4.40;99.90
18047;DHT22;9148;51.454;13.862;2024-01-27T03:41:28;4.60;99.90
18047;DHT22;9148;51.454;13.862;2024-01-27T03:43:54;4.40;99.90
18047;DHT22;9148;51.454;13.862;2024-01-27T03:46:20;5.40;99.90
18047;DHT22;9148;51.454;13.862;2024-01-27T03:48:45;4.50;99.90
18047;DHT22;9148;51.454;13.862;2024-01-27T03:51:11;4.60;99.90
18047;DHT22;9148;51.454;13.862;2024-01-27T03:53:37;4.60;99.90
18047;DHT22;9148;51.454;13.862;2024-01-27T03:56:03;4.60;99.90
18047;DHT22;9148;51.454;13.862;2024-01-27T03:58:30;4.60;99.90
18047;DHT22;9148;51.454;13.862;2024-01-27T04:00:57;5.40;99.90
18047;DHT22;9148;51.454;13.862;2024-01-27T04:03:23;4.60;99.90
18047;DHT22;9148;51.454;13.862;2024-01-27T04:05:48;5.10;99.90
18047;DHT22;9148;51.454;13.862;2024-01-27T04:08:14;4.70;99.90
18047;DHT22;9148;51.454;13.862;2024-01-27T04:10:40;4.70;99.90
18047;DHT22;9148;51.454;13.862;2024-01-27T04:13:05;4.80;99.90
18047;DHT22;9148;51.454;13.862;2024-01-27T04:15:34;5.50;99.90
18047;DHT22;9148;51.454;13.862;2024-01-27T04:18:04;5.60;99.90
18047;DHT22;9148;51.454;13.862;2024-01-27T04:20:33;4.70;99.90
18047;DHT22;9148;51.454;13.862;2024-01-27T04:22:59;4.70;99.90
18047;DHT22;9148;51.454;13.862;2024-01-27T04:25:24;5.50;99.90
18047;DHT22;9148;51.454;13.862;2024-01-27T04:27:50;4.70;99.90
18047;DHT22;9148;51.454;13.862;2024-01-27T04:30:16;4.80;99.90
18047;DHT22;9148;51.454;13.862;2024-01-27T04:32:41;4.80;99.90
18047;DHT22;9148;51.454;13.862;2024-01-27T04:35:11;5.30;99.90
18047;DHT22;9148;51.454;13.862;2024-01-27T04:37:37;4.80;99.90
18047;DHT22;9148;51.454;13.862;2024-01-27T04:40:07;4.80;99.90
18047;DHT22;9148;51.454;13.862;2024-01-27T04:42:38;4.80;99.90
18047;DHT22;9148;51.454;13.862;2024-01-27T04:45:05;4.80;99.90
18047;DHT22;9148;51.454;13.862;2024-01-27T04:47:34;4.80;99.90
18047;DHT22;9148;51.454;13.862;2024-01-27T04:50:00;4.80;99.90
18047;DHT22;9148;51.454;13.862;2024-01-27T04:52:26;5.60;99.90
18047;DHT22;9148;51.454;13.862;2024-01-27T04:54:51;4.80;99.90
18047;DHT22;9148;51.454;13.862;2024-01-27T04:57:17;4.80;99.90
18047;DHT22;9148;51.454;13.862;2024-01-27T04:59:43;4.80;99.90
18047;DHT22;9148;51.454;13.862;2024-01-27T05:02:08;4.80;99.90
18047;DHT22;9148;51.454;13.862;2024-01-27T05:04:34;5.80;99.90
18047;DHT22;9148;51.454;13.862;2024-01-27T05:07:00;4.80;99.90
18047;DHT22;9148;51.454;13.862;2024-01-27T05:09:25;4.70;99.90
18047;DHT22;9148;51.454;13.862;2024-01-27T05:11:51;4.70;99.90
18047;DHT22;9148;51.454;13.862;2024-01-27T05:14:18;4.80;99.90
18047;DHT22;9148;51.454;13.862;2024-01-27T05:16:44;5.70;99.90
18047;DHT22;9148;51.454;13.862;2024-01-27T05:19:10;4.80;99.90
18047;DHT22;9148;51.454;13.862;2024-01-27T05:21:37;5.60;99.90
18047;DHT22;9148;51.454;13.862;2024-01-27T05:24:03;5.40;99.90
18047;DHT22;9148;51.454;13.862;2024-01-27T05:26:29;4.80;99.90
18047;DHT22;9148;51.454;13.862;2024-01-27T05:28:55;4.80;99.90
18047;DHT22;9148;51.454;13.862;2024-01-27T05:31:21;4.80;99.90
18047;DHT22;9148;51.454;13.862;2024-01-27T05:33:47;4.70;99.90
18047;DHT22;9148;51.454;13.862;2024-01-27T05:36:12;5.80;99.90
18047;DHT22;9148;51.454;13.862;2024-01-27T05:38:39;4.70;99.90
18047;DHT22;9148;51.454;13.862;2024-01-27T05:41:05;4.70;99.90
18047;DHT22;9148;51.454;13.862;2024-01-27T05:43:31;4.70;99.90
18047;DHT22;9148;51.454;13.862;2024-01-27T05:45:56;4.70;99.90
18047;DHT22;9148;51.454;13.862;2024-01-27T05:48:22;5.40;99.90
18047;DHT22;9148;51.454;13.862;2024-01-27T05:50:58;4.70;99.90
18047;DHT22;9148;51.454;13.862;2024-01-27T05:53:25;4.60;99.90
18047;DHT22;9148;51.454;13.862;2024-01-27T05:55:51;4.60;99.90
18047;DHT22;9148;51.454;13.862;2024-01-27T05:58:17;5.40;99.90
18047;DHT22;9148;51.454;13.862;2024-01-27T06:00:46;4.40;99.90
18047;DHT22;9148;51.454;13.862;2024-01-27T06:03:12;4.70;99.90
18047;DHT22;9148;51.454;13.862;2024-01-27T06:05:38;4.40;99.90
18047;DHT22;9148;51.454;13.862;2024-01-27T06:08:06;4.30;99.90
18047;DHT22;9148;51.454;13.862;2024-01-27T06:10:32;4.40;99.90
18047;DHT22;9148;51.454;13.862;2024-01-27T06:12:58;4.20;99.90
18047;DHT22;9148;51.454;13.862;2024-01-27T06:15:24;5.20;99.90
18047;DHT22;9148;51.454;13.862;2024-01-27T06:17:50;4.80;99.90
18047;DHT22;9148;51.454;13.862;2024-01-27T06:20:16;4.20;99.90
18047;DHT22;9148;51.454;13.862;2024-01-27T06:22:44;4.20;99.90
18047;DHT22;9148;51.454;13.862;2024-01-27T06:25:10;4.10;99.90
18047;DHT22;9148;51.454;13.862;2024-01-27T06:27:37;4.10;99.90
18047;DHT22;9148;51.454;13.862;2024-01-27T06:30:07;4.00;99.90
18047;DHT22;9148;51.454;13.862;2024-01-27T06:32:35;4.10;99.90
18047;DHT22;9148;51.454;13.862;2024-01-27T06:35:00;4.10;99.90
18047;DHT22;9148;51.454;13.862;2024-01-27T06:37:26;4.10;99.90
18047;DHT22;9148;51.454;13.862;2024-01-27T06:39:51;4.00;99.90
18047;DHT22;9148;51.454;13.862;2024-01-27T06:42:17;4.10;99.90
18047;DHT22;9148;51.454;13.862;2024-01-27T06:44:43;4.10;99.90
18047;DHT22;9148;51.454;13.862;2024-01-27T06:47:08;4.90;99.90
18047;DHT22;9148;51.454;13.862;2024-01-27T06:49:34;4.10;99.90
18047;DHT22;9148;51.454;13.862;2024-01-27T06:52:00;4.00;99.90
18047;DHT22;9148;51.454;13.862;2024-01-27T06:54:26;4.70;99.90
18047;DHT22;9148;51.454;13.862;2024-01-27T06:56:51;4.00;99.90
18047;DHT22;9148;51.454;13.862;2024-01-27T06:59:17;4.00;99.90
18047;DHT22;9148;51.454;13.862;2024-01-27T07:01:49;4.00;99.90
18047;DHT22;9148;51.454;13.862;2024-01-27T07:04:15;4.00;99.90
18047;DHT22;9148;51.454;13.862;2024-01-27T07:06:41;4.00;99.90
18047;DHT22;9148;51.454;13.862;2024-01-27T07:09:06;4.10;99.90
18047;DHT22;9148;51.454;13.862;2024-01-27T07:11:32;4.70;99.90
18047;DHT22;9148;51.454;13.862;2024-01-27T07:13:59;4.10;99.90
18047;DHT22;9148;51.454;13.862;2024-01-27T07:16:24;4.20;99.90
18047;DHT22;9148;51.454;13.862;2024-01-27T07:18:50;4.70;99.90
18047;DHT22;9148;51.454;13.862;2024-01-27T07:21:16;4.20;99.90
18047;DHT22;9148;51.454;13.862;2024-01-27T07:23:43;4.30;99.90
18047;DHT22;9148;51.454;13.862;2024-01-27T07:26:12;4.40;99.90
18047;DHT22;9148;51.454;13.862;2024-01-27T07:28:38;5.40;99.90
18047;DHT22;9148;51.454;13.862;2024-01-27T07:31:05;4.40;99.90
18047;DHT22;9148;51.454;13.862;2024-01-27T07:33:31;4.50;99.90
18047;DHT22;9148;51.454;13.862;2024-01-27T07:35:57;4.50;99.90
18047;DHT22;9148;51.454;13.862;2024-01-27T07:38:22;4.50;99.90
18047;DHT22;9148;51.454;13.862;2024-01-27T07:40:48;4.50;99.90
18047;DHT22;9148;51.454;13.862;2024-01-27T07:43:14;5.40;99.90
18047;DHT22;9148;51.454;13.862;2024-01-27T07:45:39;4.60;99.90
18047;DHT22;9148;51.454;13.862;2024-01-27T07:48:06;4.60;99.90
18047;DHT22;9148;51.454;13.862;2024-01-27T07:50:32;4.70;99.90
18047;DHT22;9148;51.454;13.862;2024-01-27T07:52:58;5.00;99.90
18047;DHT22;9148;51.454;13.862;2024-01-27T07:55:24;4.80;99.90
18047;DHT22;9148;51.454;13.862;2024-01-27T07:57:50;4.80;99.90
18047;DHT22;9148;51.454;13.862;2024-01-27T08:00:15;4.80;99.90
18047;DHT22;9148;51.454;13.862;2024-01-27T08:02:41;4.90;99.90
18047;DHT22;9148;51.454;13.862;2024-01-27T08:05:07;5.50;99.90
18047;DHT22;9148;51.454;13.862;2024-01-27T08:07:34;4.90;99.90
18047;DHT22;9148;51.454;13.862;2024-01-27T08:09:59;5.20;99.90
18047;DHT22;9148;51.454;13.862;2024-01-27T08:12:25;5.80;99.90
18047;DHT22;9148;51.454;13.862;2024-01-27T08:14:51;4.90;99.90
18047;DHT22;9148;51.454;13.862;2024-01-27T08:17:16;5.00;99.90
18047;DHT22;9148;51.454;13.862;2024-01-27T08:19:42;5.10;99.90
18047;DHT22;9148;51.454;13.862;2024-01-27T08:22:08;5.00;99.90
18047;DHT22;9148;51.454;13.862;2024-01-27T08:24:34;6.10;99.90
18047;DHT22;9148;51.454;13.862;2024-01-27T08:27:00;5.00;99.90
18047;DHT22;9148;51.454;13.862;2024-01-27T08:29:26;5.40;99.90
18047;DHT22;9148;51.454;13.862;2024-01-27T08:31:52;5.10;99.90
18047;DHT22;9148;51.454;13.862;2024-01-27T08:34:18;5.10;99.90
18047;DHT22;9148;51.454;13.862;2024-01-27T08:36:43;5.20;99.90
18047;DHT22;9148;51.454;13.862;2024-01-27T08:39:09;5.80;99.90
18047;DHT22;9148;51.454;13.862;2024-01-27T08:41:37;5.00;99.90
18047;DHT22;9148;51.454;13.862;2024-01-27T08:44:03;5.20;99.90
18047;DHT22;9148;51.454;13.862;2024-01-27T08:46:29;5.20;99.90
18047;DHT22;9148;51.454;13.862;2024-01-27T08:48:55;5.20;99.90
18047;DHT22;9148;51.454;13.862;2024-01-27T08:51:20;5.20;99.90
18047;DHT22;9148;51.454;13.862;2024-01-27T08:53:46;5.30;99.90
18047;DHT22;9148;51.454;13.862;2024-01-27T08:56:15;5.70;99.90
18047;DHT22;9148;51.454;13.862;2024-01-27T08:58:43;5.30;99.90
18047;DHT22;9148;51.454;13.862;2024-01-27T09:01:10;5.20;99.90
18047;DHT22;9148;51.454;13.862;2024-01-27T09:03:38;5.60;99.90
18047;DHT22;9148;51.454;13.862;2024-01-27T09:06:06;5.40;99.90
18047;DHT22;9148;51.454;13.862;2024-01-27T09:08:33;5.40;99.90
18047;DHT22;9148;51.454;13.862;2024-01-27T09:11:00;5.40;99.90
18047;DHT22;9148;51.454;13.862;2024-01-27T09:13:26;6.10;99.90
18047;DHT22;9148;51.454;13.862;2024-01-27T09:15:52;5.40;99.90
18047;DHT22;9148;51.454;13.862;2024-01-27T09:18:18;5.30;99.90
18047;DHT22;9148;51.454;13.862;2024-01-27T09:20:44;6.30;99.90
18047;DHT22;9148;51.454;13.862;2024-01-27T09:23:09;5.40;99.90
18047;DHT22;9148;51.454;13.862;2024-01-27T09:25:35;5.40;99.90
18047;DHT22;9148;51.454;13.862;2024-01-27T09:28:01;5.50;99.90
18047;DHT22;9148;51.454;13.862;2024-01-27T09:30:27;5.50;99.90
18047;DHT22;9148;51.454;13.862;2024-01-27T09:32:52;5.70;99.90
18047;DHT22;9148;51.454;13.862;2024-01-27T09:35:18;5.50;99.90
18047;DHT22;9148;51.454;13.862;2024-01-27T09:37:45;5.50;99.90
18047;DHT22;9148;51.454;13.862;2024-01-27T09:40:12;5.50;99.90
18047;DHT22;9148;51.454;13.862;2024-01-27T09:42:38;5.60;99.90
18047;DHT22;9148;51.454;13.862;2024-01-27T09:45:05;5.70;99.90
18047;DHT22;9148;51.454;13.862;2024-01-27T09:47:31;5.60;99.90
18047;DHT22;9148;51.454;13.862;2024-01-27T09:49:57;5.60;99.90
18047;DHT22;9148;51.454;13.862;2024-01-27T09:52:23;5.50;99.90
18047;DHT22;9148;51.454;13.862;2024-01-27T09:54:49;5.70;99.90
18047;DHT22;9148;51.454;13.862;2024-01-27T09:57:15;5.90;99.90
18047;DHT22;9148;51.454;13.862;2024-01-27T09:59:41;6.20;99.90
18047;DHT22;9148;51.454;13.862;2024-01-27T10:02:11;5.50;99.90
18047;DHT22;9148;51.454;13.862;2024-01-27T10:04:39;5.80;99.90
18047;DHT22;9148;51.454;13.862;2024-01-27T10:07:06;6.50;99.90
18047;DHT22;9148;51.454;13.862;2024-01-27T10:09:32;5.70;99.90
18047;DHT22;9148;51.454;13.862;2024-01-27T10:12:00;5.70;99.90
18047;DHT22;9148;51.454;13.862;2024-01-27T10:14:41;6.40;99.90
18047;DHT22;9148;51.454;13.862;2024-01-27T10:17:11;5.70;99.90
18047;DHT22;9148;51.454;13.862;2024-01-27T10:19:37;6.40;99.90
18047;DHT22;9148;51.454;13.862;2024-01-27T10:22:03;5.70;99.90
18047;DHT22;9148;51.454;13.862;2024-01-27T10:24:31;6.70;99.90
18047;DHT22;9148;51.454;13.862;2024-01-27T10:27:02;5.90;99.90
18047;DHT22;9148;51.454;13.862;2024-01-27T10:29:29;5.90;99.90
18047;DHT22;9148;51.454;13.862;2024-01-27T10:31:55;5.90;99.90
18047;DHT22;9148;51.454;13.862;2024-01-27T10:34:21;6.00;99.90
18047;DHT22;9148;51.454;13.862;2024-01-27T10:36:46;6.00;99.90
18047;DHT22;9148;51.454;13.862;2024-01-27T10:39:20;6.70;99.90
18047;DHT22;9148;51.454;13.862;2024-01-27T10:41:48;6.80;99.90
18047;DHT22;9148;51.454;13.862;2024-01-27T10:44:15;6.20;99.90
18047;DHT22;9148;51.454;13.862;2024-01-27T10:46:47;6.30;99.90
18047;DHT22;9148;51.454;13.862;2024-01-27T10:49:15;6.50;99.90
18047;DHT22;9148;51.454;13.862;2024-01-27T10:51:49;6.30;99.90
18047;DHT22;9148;51.454;13.862;2024-01-27T10:54:26;6.20;99.90
18047;DHT22;9148;51.454;13.862;2024-01-27T10:56:56;6.90;99.90
18047;DHT22;9148;51.454;13.862;2024-01-27T10:59:26;6.70;99.90
18047;DHT22;9148;51.454;13.862;2024-01-27T11:01:52;6.50;99.90
18047;DHT22;9148;51.454;13.862;2024-01-27T11:04:20;6.50;99.90
18047;DHT22;9148;51.454;13.862;2024-01-27T11:06:49;7.30;99.90
18047;DHT22;9148;51.454;13.862;2024-01-27T11:09:17;6.30;99.90
18047;DHT22;9148;51.454;13.862;2024-01-27T11:11:44;6.70;99.90
18047;DHT22;9148;51.454;13.862;2024-01-27T11:14:11;6.70;99.90
18047;DHT22;9148;51.454;13.862;2024-01-27T11:16:37;6.70;99.90
18047;DHT22;9148;51.454;13.862;2024-01-27T11:19:11;6.80;99.90
18047;DHT22;9148;51.454;13.862;2024-01-27T11:21:37;6.80;99.90
18047;DHT22;9148;51.454;13.862;2024-01-27T11:24:16;7.50;99.90
18047;DHT22;9148;51.454;13.862;2024-01-27T11:26:44;6.90;99.90
18047;DHT22;9148;51.454;13.862;2024-01-27T11:29:10;6.90;99.90
18047;DHT22;9148;51.454;13.862;2024-01-27T11:31:45;6.90;99.90
18047;DHT22;9148;51.454;13.862;2024-01-27T11:34:11;6.90;99.90
18047;DHT22;9148;51.454;13.862;2024-01-27T11:36:43;7.20;99.90
18047;DHT22;9148;51.454;13.862;2024-01-27T11:39:29;7.00;99.90
18047;DHT22;9148;51.454;13.862;2024-01-27T11:42:05;7.10;99.90
18047;DHT22;9148;51.454;13.862;2024-01-27T11:44:37;7.10;99.90
18047;DHT22;9148;51.454;13.862;2024-01-27T11:47:04;6.40;99.90
18047;DHT22;9148;51.454;13.862;2024-01-27T11:49:30;7.10;99.90
18047;DHT22;9148;51.454;13.862;2024-01-27T11:51:56;7.60;99.90
18047;DHT22;9148;51.454;13.862;2024-01-27T11:54:21;7.10;99.90
18047;DHT22;9148;51.454;13.862;2024-01-27T11:56:47;7.00;99.90
18047;DHT22;9148;51.454;13.862;2024-01-27T11:59:14;7.10;99.90
18047;DHT22;9148;51.454;13.862;2024-01-27T12:01:40;7.00;99.90
18047;DHT22;9148;51.454;13.862;2024-01-27T12:04:06;7.60;99.90
18047;DHT22;9148;51.454;13.862;2024-01-27T12:06:31;7.10;99.90
18047;DHT22;9148;51.454;13.862;2024-01-27T12:08:58;7.20;99.90
18047;DHT22;9148;51.454;13.862;2024-01-27T12:11:24;7.30;99.90
18047;DHT22;9148;51.454;13.862;2024-01-27T12:13:51;7.20;99.90
18047;DHT22;9148;51.454;13.862;2024-01-27T12:16:17;7.40;99.90
18047;DHT22;9148;51.454;13.862;2024-01-27T12:18:44;7.30;99.90
18047;DHT22;9148;51.454;13.862;2024-01-27T12:21:10;7.30;99.90
18047;DHT22;9148;51.454;13.862;2024-01-27T12:23:36;7.40;99.90
18047;DHT22;9148;51.454;13.862;2024-01-27T12:26:01;7.30;99.90
18047;DHT22;9148;51.454;13.862;2024-01-27T12:28:27;7.80;99.90
18047;DHT22;9148;51.454;13.862;2024-01-27T12:30:53;7.60;99.90
18047;DHT22;9148;51.454;13.862;2024-01-27T12:33:19;7.70;99.90
18047;DHT22;9148;51.454;13.862;2024-01-27T12:35:50;7.70;99.90
18047;DHT22;9148;51.454;13.862;2024-01-27T12:38:17;7.90;99.90
18047;DHT22;9148;51.454;13.862;2024-01-27T12:40:43;8.00;99.90
18047;DHT22;9148;51.454;13.862;2024-01-27T12:43:09;8.10;99.90
18047;DHT22;9148;51.454;13.862;2024-01-27T12:45:35;8.30;99.90
18047;DHT22;9148;51.454;13.862;2024-01-27T12:48:01;8.50;99.90
18047;DHT22;9148;51.454;13.862;2024-01-27T12:50:27;8.70;99.90
18047;DHT22;9148;51.454;13.862;2024-01-27T12:52:53;8.60;99.90
18047;DHT22;9148;51.454;13.862;2024-01-27T12:55:20;8.70;99.90
18047;DHT22;9148;51.454;13.862;2024-01-27T12:57:46;8.60;99.90
18047;DHT22;9148;51.454;13.862;2024-01-27T13:00:13;8.50;99.90
18047;DHT22;9148;51.454;13.862;2024-01-27T13:02:40;8.40;99.90
18047;DHT22;9148;51.454;13.862;2024-01-27T13:05:06;8.30;99.90
18047;DHT22;9148;51.454;13.862;2024-01-27T13:07:32;8.30;99.90
18047;DHT22;9148;51.454;13.862;2024-01-27T13:09:58;8.30;99.90
18047;DHT22;9148;51.454;13.862;2024-01-27T13:12:23;8.20;99.90
18047;DHT22;9148;51.454;13.862;2024-01-27T13:14:49;8.40;99.90
18047;DHT22;9148;51.454;13.862;2024-01-27T13:17:15;8.40;99.90
18047;DHT22;9148;51.454;13.862;2024-01-27T13:19:41;8.50;99.90
18047;DHT22;9148;51.454;13.862;2024-01-27T13:22:07;8.60;99.90
18047;DHT22;9148;51.454;13.862;2024-01-27T13:24:33;8.80;99.90
18047;DHT22;9148;51.454;13.862;2024-01-27T13:26:59;8.70;99.90
18047;DHT22;9148;51.454;13.862;2024-01-27T13:29:28;8.80;99.90
18047;DHT22;9148;51.454;13.862;2024-01-27T13:31:54;8.80;99.90
18047;DHT22;9148;51.454;13.862;2024-01-27T13:34:20;8.80;99.90
18047;DHT22;9148;51.454;13.862;2024-01-27T13:36:45;9.00;99.90
18047;DHT22;9148;51.454;13.862;2024-01-27T13:39:11;9.00;99.90
18047;DHT22;9148;51.454;13.862;2024-01-27T13:41:37;9.40;99.90
18047;DHT22;9148;51.454;13.862;2024-01-27T13:44:03;9.50;99.90
18047;DHT22;9148;51.454;13.862;2024-01-27T13:46:28;9.70;99.90
18047;DHT22;9148;51.454;13.862;2024-01-27T13:48:54;9.90;99.90
18047;DHT22;9148;51.454;13.862;2024-01-27T13:51:20;10.10;99.90
18047;DHT22;9148;51.454;13.862;2024-01-27T13:53:46;10.30;99.90
18047;DHT22;9148;51.454;13.862;2024-01-27T13:56:12;10.50;99.90
18047;DHT22;9148;51.454;13.862;2024-01-27T13:58:37;10.60;99.90
18047;DHT22;9148;51.454;13.862;2024-01-27T14:01:03;10.80;99.90
18047;DHT22;9148;51.454;13.862;2024-01-27T14:03:29;10.80;99.10
18047;DHT22;9148;51.454;13.862;2024-01-27T14:05:55;10.70;98.10
18047;DHT22;9148;51.454;13.862;2024-01-27T14:08:20;10.60;97.80
18047;DHT22;9148;51.454;13.862;2024-01-27T14:10:46;10.60;97.90
18047;DHT22;9148;51.454;13.862;2024-01-27T14:13:13;10.50;97.50
18047;DHT22;9148;51.454;13.862;2024-01-27T14:15:39;10.40;97.20
18047;DHT22;9148;51.454;13.862;2024-01-27T14:18:05;10.40;97.40
18047;DHT22;9148;51.454;13.862;2024-01-27T14:20:32;10.50;97.10
18047;DHT22;9148;51.454;13.862;2024-01-27T14:23:00;10.50;97.40
18047;DHT22;9148;51.454;13.862;2024-01-27T14:25:25;10.50;96.90
18047;DHT22;9148;51.454;13.862;2024-01-27T14:27:51;10.50;96.50
18047;DHT22;9148;51.454;13.862;2024-01-27T14:30:17;10.40;96.40
18047;DHT22;9148;51.454;13.862;2024-01-27T14:32:43;10.40;96.30
18047;DHT22;9148;51.454;13.862;2024-01-27T14:35:09;10.20;96.40
18047;DHT22;9148;51.454;13.862;2024-01-27T14:37:35;10.20;96.20
18047;DHT22;9148;51.454;13.862;2024-01-27T14:40:02;9.90;96.40
18047;DHT22;9148;51.454;13.862;2024-01-27T14:42:30;9.60;96.60
18047;DHT22;9148;51.454;13.862;2024-01-27T14:44:55;9.40;96.40
18047;DHT22;9148;51.454;13.862;2024-01-27T14:47:21;9.20;96.80
18047;DHT22;9148;51.454;13.862;2024-01-27T14:49:47;8.90;97.10
18047;DHT22;9148;51.454;13.862;2024-01-27T14:52:13;8.70;97.50
18047;DHT22;9148;51.454;13.862;2024-01-27T14:54:39;8.50;97.90
18047;DHT22;9148;51.454;13.862;2024-01-27T14:57:05;8.40;98.10
18047;DHT22;9148;51.454;13.862;2024-01-27T14:59:34;8.20;98.50
18047;DHT22;9148;51.454;13.862;2024-01-27T15:02:00;8.10;98.80
18047;DHT22;9148;51.454;13.862;2024-01-27T15:04:27;8.00;99.10
18047;DHT22;9148;51.454;13.862;2024-01-27T15:06:54;7.90;99.30
18047;DHT22;9148;51.454;13.862;2024-01-27T15:09:20;7.80;99.60
18047;DHT22;9148;51.454;13.862;2024-01-27T15:11:47;7.60;99.80
18047;DHT22;9148;51.454;13.862;2024-01-27T15:14:13;8.10;99.90
18047;DHT22;9148;51.454;13.862;2024-01-27T15:16:39;7.50;99.90
18047;DHT22;9148;51.454;13.862;2024-01-27T15:19:05;7.30;99.90
18047;DHT22;9148;51.454;13.862;2024-01-27T15:21:31;7.30;99.90
18047;DHT22;9148;51.454;13.862;2024-01-27T15:23:56;7.20;99.90
18047;DHT22;9148;51.454;13.862;2024-01-27T15:26:22;7.20;99.90
18047;DHT22;9148;51.454;13.862;2024-01-27T15:28:49;7.10;99.90
18047;DHT22;9148;51.454;13.862;2024-01-27T15:31:14;7.10;99.90
18047;DHT22;9148;51.454;13.862;2024-01-27T15:33:40;6.90;99.90
18047;DHT22;9148;51.454;13.862;2024-01-27T15:36:07;7.30;99.90
18047;DHT22;9148;51.454;13.862;2024-01-27T15:38:33;6.80;99.90